Time;durP1;ratioP1;P1;durP2;ratioP2;P2;SDS_P1;SDS_P2;PMS_P1;PMS_P2;Temp;Humidity;BMP_temperature;BMP_pressure;BME280_temperature;BME280_humidity;BME280_pressure;Samples;Min_cycle;Max_cycle;Signal;HPM_P1;HPM_P2
2023/02/16 00:01:49;;;;;;;36.83;19.63;;;;;;;5.39;79.35;102027.19;5110321;28;20126;-56
2023/02/16 00:04:22;;;;;;;38.97;19.33;;;;;;;5.36;79.57;102024.75;5131009;28;20047;-57
2023/02/16 00:06:50;;;;;;;40.17;19.67;;;;;;;5.23;80.10;102024.59;5130779;28;20031;-56
2023/02/16 00:09:18;;;;;;;38.35;19.02;;;;;;;5.24;79.78;102026.31;5130476;28;20039;-56
2023/02/16 00:14:35;;;;;;;38.28;19.33;;;;;;;5.16;80.56;102012.72;5130470;28;20145;-56
2023/02/16 00:17:03;;;;;;;38.63;18.77;;;;;;;5.14;80.48;102012.81;5130796;28;20072;-56
2023/02/16 00:19:35;;;;;;;36.00;18.85;;;;;;;5.16;80.10;102018.81;5130506;28;20477;-56
2023/02/16 00:22:02;;;;;;;35.88;19.35;;;;;;;5.12;80.51;102022.56;5085093;28;20048;-56
2023/02/16 00:24:30;;;;;;;40.13;19.33;;;;;;;5.00;80.77;102018.00;5069135;28;20102;-56
2023/02/16 00:26:58;;;;;;;34.75;18.75;;;;;;;4.98;81.00;102018.13;5069501;28;20045;-56
2023/02/16 00:29:40;;;;;;;43.05;19.75;;;;;;;4.91;80.77;102022.03;5069256;28;20449;-56
2023/02/16 00:32:11;;;;;;;37.13;19.67;;;;;;;4.96;80.38;102021.75;5069082;28;20116;-57
2023/02/16 00:34:40;;;;;;;38.38;19.23;;;;;;;4.95;80.59;102022.69;5059118;28;20048;-56
2023/02/16 00:37:10;;;;;;;37.03;19.17;;;;;;;4.96;80.37;102006.81;5056143;28;20132;-56
2023/02/16 00:39:38;;;;;;;39.47;19.77;;;;;;;4.99;80.25;102006.66;5055850;28;20049;-56
2023/02/16 00:42:14;;;;;;;39.00;20.17;;;;;;;4.90;80.86;101996.66;5056000;28;20056;-56
2023/02/16 00:44:47;;;;;;;38.75;20.38;;;;;;;4.88;81.00;102001.16;5055935;28;20405;-56
2023/02/16 00:47:19;;;;;;;40.80;20.25;;;;;;;4.87;80.99;102001.22;5055774;28;20064;-56
2023/02/16 00:49:47;;;;;;;40.10;20.50;;;;;;;4.92;80.91;102004.47;5055732;28;20053;-56
2023/02/16 00:52:32;;;;;;;37.10;19.80;;;;;;;4.79;81.13;101999.03;5055390;28;20490;-56
2023/02/16 00:55:02;;;;;;;37.58;19.98;;;;;;;4.90;81.40;102001.06;5055900;28;20068;-56
2023/02/16 00:57:33;;;;;;;41.60;20.15;;;;;;;4.85;81.25;102000.47;5055678;28;20482;-56
2023/02/16 01:00:07;;;;;;;40.22;21.00;;;;;;;4.83;80.80;101995.28;5054975;28;20119;-57
2023/02/16 01:02:34;;;;;;;40.22;20.13;;;;;;;4.70;81.55;101994.28;5087899;28;20044;-56
2023/02/16 01:05:01;;;;;;;45.10;20.38;;;;;;;4.75;81.50;101992.25;5095461;28;20444;-56
2023/02/16 01:13:07;;;;;;;41.90;20.33;;;;;;;4.63;82.04;101990.31;5095282;28;20401;-56
2023/02/16 01:15:35;;;;;;;39.58;20.35;;;;;;;4.73;81.63;101988.84;5079054;28;20049;-56
2023/02/16 01:18:02;;;;;;;36.88;19.65;;;;;;;4.62;81.97;101986.84;5054226;28;20041;-56
2023/02/16 01:20:28;;;;;;;40.85;21.17;;;;;;;4.64;82.23;101984.09;5054171;28;20094;-56
2023/02/16 01:22:55;;;;;;;38.53;19.60;;;;;;;4.61;82.26;101980.72;5054226;28;20410;-56
2023/02/16 01:25:22;;;;;;;39.42;19.67;;;;;;;4.67;81.87;101984.78;5037344;28;20040;-56
2023/02/16 01:27:52;;;;;;;41.95;20.25;;;;;;;4.65;81.69;101988.44;5054804;28;20041;-56
2023/02/16 01:30:21;;;;;;;39.60;19.75;;;;;;;4.59;82.13;101997.50;5055179;28;20056;-56
2023/02/16 01:32:51;;;;;;;39.50;19.80;;;;;;;4.45;82.57;101984.28;5054538;28;20108;-56
2023/02/16 01:35:26;;;;;;;45.10;21.23;;;;;;;4.29;83.10;101989.50;5054926;28;20047;-56
2023/02/16 01:37:53;;;;;;;38.72;19.90;;;;;;;4.45;82.67;101987.75;5036767;28;20067;-55
2023/02/16 01:40:43;;;;;;;38.53;19.92;;;;;;;4.27;83.05;101989.59;5054824;28;20445;-56
2023/02/16 01:43:36;;;;;;;39.28;19.77;;;;;;;4.30;83.10;101996.47;5054358;28;20116;-55
2023/02/16 01:46:08;;;;;;;;;;;;;;;4.39;82.31;101988.94;5037366;28;20041;-56
2023/02/16 01:48:35;;;;;;;38.83;20.05;;;;;;;4.35;82.84;101983.94;5054624;28;19925;-56
2023/02/16 01:51:23;;;;;;;37.15;19.38;;;;;;;4.22;83.19;101978.47;5054756;28;20041;-56
2023/02/16 01:54:15;;;;;;;36.40;19.98;;;;;;;4.40;82.98;101976.63;5054356;28;20124;-56
2023/02/16 01:56:47;;;;;;;37.88;18.50;;;;;;;4.31;83.04;101966.63;5054391;28;20498;-56
2023/02/16 01:59:40;;;;;;;43.08;20.52;;;;;;;4.16;84.02;101970.94;5054279;28;20526;-56
2023/02/16 02:02:26;;;;;;;36.28;19.58;;;;;;;4.26;83.46;101980.03;5079209;28;20047;-56
2023/02/16 02:08:12;;;;;;;41.00;19.98;;;;;;;4.03;84.77;101981.25;5094415;28;20052;-56
2023/02/16 02:10:51;;;;;;;37.53;19.63;;;;;;;4.12;84.27;101974.66;5080089;28;20474;-55
2023/02/16 02:13:40;;;;;;;42.65;20.08;;;;;;;4.18;83.52;101977.81;5094555;28;20048;-55
2023/02/16 02:16:09;;;;;;;41.17;20.98;;;;;;;4.22;83.46;101974.09;5094178;28;20477;-56
2023/02/16 02:18:36;;;;;;;39.25;20.58;;;;;;;4.24;83.61;101971.38;5094388;28;20127;-56
2023/02/16 02:24:20;;;;;;;41.55;19.98;;;;;;;4.16;83.89;101961.28;5111000;27;20125;-56
2023/02/16 02:27:10;;;;;;;37.80;19.73;;;;;;;4.14;84.33;101957.03;5110896;28;20073;-56
2023/02/16 02:30:07;;;;;;;42.10;19.90;;;;;;;4.17;83.68;101967.41;5110585;28;20452;-56
2023/02/16 02:33:05;;;;;;;39.97;20.15;;;;;;;4.16;83.72;101965.69;5110620;28;20040;-56
2023/02/16 02:35:50;;;;;;;43.28;20.00;;;;;;;4.07;83.50;101953.88;5110563;28;20044;-56
2023/02/16 02:41:20;;;;;;;39.95;20.13;;;;;;;4.14;83.20;101949.16;5110878;27;20347;-56
2023/02/16 02:43:55;;;;;;;44.67;20.05;;;;;;;4.12;83.51;101945.78;5111102;28;20047;-56
2023/02/16 02:46:30;;;;;;;38.58;19.92;;;;;;;3.90;84.04;101939.03;5110892;28;20127;-56
2023/02/16 02:48:57;;;;;;;40.85;20.25;;;;;;;4.01;84.01;101949.81;5111184;28;20044;-56
2023/02/16 02:51:32;;;;;;;38.13;19.75;;;;;;;4.02;83.83;101942.78;5109495;28;20105;-56
2023/02/16 03:00:57;;;;;;;38.92;19.83;;;;;;;3.83;85.08;101930.63;5109774;28;20044;-56
2023/02/16 03:03:24;;;;;;;44.47;19.55;;;;;;;3.90;84.64;101928.53;5090005;28;20078;-56
2023/02/16 03:05:55;;;;;;;37.42;20.00;;;;;;;3.88;84.43;101938.28;5090347;28;20151;-56
2023/02/16 03:08:26;;;;;;;41.28;20.23;;;;;;;3.90;84.73;101938.19;5090170;28;20106;-56
2023/02/16 03:13:52;;;;;;;40.78;21.02;;;;;;;3.85;84.50;101923.53;5089854;28;20048;-56
2023/02/16 03:16:24;;;;;;;38.97;19.98;;;;;;;3.85;85.00;101925.31;5096925;28;20105;-56
2023/02/16 03:30:12;;;;;;;39.50;19.40;;;;;;;3.76;85.43;101895.13;5110059;28;20039;-56
2023/02/16 03:32:39;;;;;;;42.25;20.90;;;;;;;3.72;85.59;101903.28;5110217;28;20052;-56
2023/02/16 03:35:07;;;;;;;41.30;20.00;;;;;;;3.77;85.29;101903.88;5110251;28;20101;-56
2023/02/16 03:37:34;;;;;;;44.42;20.75;;;;;;;3.78;85.29;101906.44;5109811;28;20119;-56
2023/02/16 03:40:33;;;;;;;42.58;20.75;;;;;;;3.80;85.17;101908.94;5109534;28;20554;-56
2023/02/16 03:42:49;;;;;;;40.83;20.02;;;;;;;3.81;84.86;101911.50;5109487;28;20055;-56
2023/02/16 03:45:17;;;;;;;40.47;20.95;;;;;;;3.72;85.21;101904.13;5110046;28;20067;-55
2023/02/16 03:47:43;;;;;;;39.83;20.60;;;;;;;3.75;85.39;101903.97;5108889;28;20051;-55
2023/02/16 03:50:11;;;;;;;45.05;21.70;;;;;;;3.79;85.36;101910.72;5107379;28;20089;-55
2023/02/16 03:52:37;;;;;;;43.60;21.48;;;;;;;3.82;84.92;101909.72;5096161;28;20123;-55
2023/02/16 03:55:04;;;;;;;42.95;21.13;;;;;;;3.69;85.41;101911.28;5095838;28;20040;-56
2023/02/16 03:57:31;;;;;;;41.78;21.45;;;;;;;3.67;85.53;101916.63;5095826;28;20128;-56
2023/02/16 03:59:58;;;;;;;41.80;21.35;;;;;;;3.75;85.13;101919.72;5095389;28;20058;-56
2023/02/16 04:02:27;;;;;;;42.05;21.92;;;;;;;3.77;84.89;101917.84;5128138;27;20047;-56
2023/02/16 04:04:54;;;;;;;42.95;22.02;;;;;;;3.74;84.85;101920.63;5095610;28;20094;-56
2023/02/16 04:07:21;;;;;;;45.47;22.55;;;;;;;3.76;84.69;101917.91;5096128;28;20044;-56
2023/02/16 04:09:49;;;;;;;44.75;22.67;;;;;;;3.74;84.98;101907.50;5095545;28;20040;-56
2023/02/16 04:12:47;;;;;;;45.20;22.15;;;;;;;3.77;85.02;101906.50;5094620;28;20044;-57
2023/02/16 04:15:08;;;;;;;45.67;22.80;;;;;;;3.54;85.38;101916.41;5095638;28;20051;-57
2023/02/16 04:17:35;;;;;;;50.75;22.95;;;;;;;3.55;85.92;101915.50;5095808;28;20036;-57
2023/02/16 04:20:03;;;;;;;41.75;22.10;;;;;;;3.56;85.67;101909.31;5095756;28;20038;-57
2023/02/16 04:22:29;;;;;;;45.97;23.38;;;;;;;3.59;85.69;101914.41;5095828;28;20081;-57
2023/02/16 04:24:56;;;;;;;45.85;22.70;;;;;;;3.53;85.88;101911.25;5095331;28;20044;-57
2023/02/16 04:27:22;;;;;;;47.00;24.00;;;;;;;3.53;85.83;101916.50;5095377;28;20054;-57
2023/02/16 04:29:49;;;;;;;45.42;23.35;;;;;;;3.51;86.10;101908.72;5095259;28;20063;-57
2023/02/16 04:32:16;;;;;;;48.97;23.30;;;;;;;3.56;85.96;101908.47;5095445;28;20451;-57
2023/02/16 04:34:42;;;;;;;46.58;22.73;;;;;;;3.45;86.60;101915.09;5095273;28;20044;-57
2023/02/16 04:37:09;;;;;;;44.88;23.13;;;;;;;3.52;86.28;101920.06;5095308;28;20044;-57
2023/02/16 04:39:36;;;;;;;43.17;23.45;;;;;;;3.54;86.36;101913.78;5094904;28;20040;-57
2023/02/16 04:42:03;;;;;;;43.88;22.45;;;;;;;3.59;85.75;101911.78;5095037;28;20478;-57
2023/02/16 04:44:29;;;;;;;46.75;21.23;;;;;;;3.56;86.05;101911.09;5095221;28;20040;-57
2023/02/16 04:46:56;;;;;;;42.40;20.95;;;;;;;3.56;85.93;101917.19;5095025;28;20048;-57
2023/02/16 04:49:23;;;;;;;41.45;21.15;;;;;;;3.59;85.75;101901.28;5095278;28;20063;-57
2023/02/16 04:51:50;;;;;;;43.72;22.17;;;;;;;3.56;85.84;101901.44;5094992;28;20052;-57
2023/02/16 04:54:17;;;;;;;43.67;21.50;;;;;;;3.58;86.02;101904.00;5094745;28;20127;-57
2023/02/16 04:56:44;;;;;;;44.60;22.52;;;;;;;3.56;86.05;101908.47;5094573;28;20039;-57
2023/02/16 04:59:11;;;;;;;42.47;22.77;;;;;;;3.53;86.12;101908.63;5094487;28;20048;-57
2023/02/16 05:01:38;;;;;;;43.63;22.15;;;;;;;3.50;86.43;101909.63;5094088;28;20089;-57
2023/02/16 05:04:05;;;;;;;43.70;22.10;;;;;;;3.36;86.62;101917.38;5094229;28;20052;-57
2023/02/16 05:06:33;;;;;;;48.63;22.90;;;;;;;3.46;86.65;101916.81;5094512;28;20044;-57
2023/02/16 05:08:59;;;;;;;39.55;22.08;;;;;;;3.51;86.35;101910.47;5094291;28;20086;-57
2023/02/16 05:14:50;;;;;;;44.50;21.70;;;;;;;3.51;86.63;101908.72;5094598;28;20078;-57
2023/02/16 05:17:07;;;;;;;;;;;;;;;3.52;86.23;101910.41;5091013;28;20087;-56
2023/02/16 05:19:34;;;;;;;40.92;20.58;;;;;;;3.44;86.69;101913.44;5093016;28;20380;-55
2023/02/16 05:22:01;;;;;;;44.20;20.63;;;;;;;3.48;86.21;101922.00;5094447;28;20048;-56
2023/02/16 05:24:27;;;;;;;48.35;22.58;;;;;;;3.50;86.34;101919.28;5094082;28;20044;-56
2023/02/16 05:26:54;;;;;;;47.13;22.85;;;;;;;3.34;87.15;101908.72;5094182;28;20048;-57
2023/02/16 05:29:21;;;;;;;46.55;22.40;;;;;;;3.48;86.88;101911.50;5094405;28;20078;-56
2023/02/16 05:31:48;;;;;;;43.60;22.38;;;;;;;3.55;86.58;101912.88;5094414;28;20048;-57
2023/02/16 05:34:15;;;;;;;42.22;21.60;;;;;;;3.54;86.57;101923.44;5094240;28;20102;-57
2023/02/16 05:36:41;;;;;;;48.25;23.20;;;;;;;3.63;85.79;101923.81;5094309;28;20047;-57
2023/02/16 05:39:08;;;;;;;42.63;22.23;;;;;;;3.59;85.79;101921.44;5092982;28;20103;-57
2023/02/16 05:41:35;;;;;;;44.45;22.25;;;;;;;3.49;86.39;101912.34;5094049;28;20474;-57
2023/02/16 05:44:03;;;;;;;44.17;21.92;;;;;;;3.59;85.84;101918.81;5126307;27;20072;-57
2023/02/16 05:46:32;;;;;;;42.15;21.17;;;;;;;3.43;86.37;101924.00;5093779;28;20059;-57
2023/02/16 05:48:59;;;;;;;44.67;22.58;;;;;;;3.57;86.20;101915.44;5093821;28;20094;-57
2023/02/16 05:51:27;;;;;;;44.45;21.85;;;;;;;3.61;85.78;101917.78;5093969;28;20416;-57
2023/02/16 05:53:54;;;;;;;44.10;21.70;;;;;;;3.68;85.38;101902.59;5093312;28;20072;-57
2023/02/16 05:56:21;;;;;;;47.47;22.80;;;;;;;3.64;85.97;101908.94;5094041;28;20055;-57
2023/02/16 05:58:48;;;;;;;42.15;21.95;;;;;;;3.72;85.49;101916.41;5093596;28;20048;-57
2023/02/16 06:01:15;;;;;;;46.83;22.60;;;;;;;3.77;84.89;101904.72;5093063;28;20047;-57
2023/02/16 06:03:42;;;;;;;48.97;22.92;;;;;;;3.73;85.29;101910.19;5093298;28;20397;-56
2023/02/16 06:06:09;;;;;;;45.45;22.23;;;;;;;3.70;84.71;101919.09;5093526;28;20070;-56
2023/02/16 06:08:36;;;;;;;46.92;22.20;;;;;;;3.84;84.56;101910.50;5093324;28;20072;-56
2023/02/16 06:11:34;;;;;;;50.10;23.33;;;;;;;3.86;84.24;101906.00;5093337;28;20040;-56
2023/02/16 06:13:56;;;;;;;43.80;22.60;;;;;;;3.95;84.17;101910.78;5093109;28;20055;-56
2023/02/16 06:16:26;;;;;;;49.33;23.23;;;;;;;3.98;83.85;101909.75;5093551;28;20044;-56
2023/02/16 06:18:53;;;;;;;50.00;23.45;;;;;;;3.82;84.75;101909.72;5093361;28;20050;-56
2023/02/16 06:21:20;;;;;;;44.97;22.90;;;;;;;3.93;84.31;101907.38;5092963;28;20520;-56
2023/02/16 06:23:47;;;;;;;50.20;22.23;;;;;;;3.97;84.10;101901.03;5093044;28;20064;-56
2023/02/16 06:26:15;;;;;;;47.90;23.15;;;;;;;4.00;83.65;101905.25;5093420;28;20048;-56
2023/02/16 06:28:42;;;;;;;43.08;21.67;;;;;;;4.03;83.53;101899.84;5093160;28;20059;-55
2023/02/16 06:31:10;;;;;;;45.40;22.80;;;;;;;3.95;84.12;101897.63;5093024;28;20413;-55
2023/02/16 06:33:37;;;;;;;45.50;23.00;;;;;;;3.89;83.82;101895.31;5093467;28;20078;-56
2023/02/16 06:36:04;;;;;;;47.25;23.33;;;;;;;3.97;83.75;101895.78;5093072;28;20101;-55
2023/02/16 06:38:31;;;;;;;47.05;23.08;;;;;;;3.99;83.94;101909.66;5092980;28;20044;-55
2023/02/16 06:40:58;;;;;;;46.75;23.55;;;;;;;3.99;83.41;101917.53;5092336;28;20032;-58
2023/02/16 06:43:25;;;;;;;50.15;23.50;;;;;;;3.80;83.98;101919.44;5093196;28;20043;-56
2023/02/16 06:45:51;;;;;;;51.88;24.67;;;;;;;3.98;83.57;101925.50;5092399;28;20039;-56
2023/02/16 06:48:18;;;;;;;48.20;22.23;;;;;;;4.06;82.64;101919.81;5092863;28;20063;-56
2023/02/16 06:50:44;;;;;;;47.78;23.33;;;;;;;4.00;83.04;101913.13;5090684;28;20131;-56
2023/02/16 06:53:11;;;;;;;49.50;24.25;;;;;;;3.85;83.58;101917.44;5092050;28;20498;-56
2023/02/16 06:55:38;;;;;;;47.45;23.20;;;;;;;3.90;83.49;101927.69;5092692;28;20051;-57
2023/02/16 06:58:06;;;;;;;46.30;23.17;;;;;;;3.99;82.91;101925.41;5092433;28;20055;-57
2023/02/16 07:00:33;;;;;;;43.65;22.23;;;;;;;3.99;82.93;101922.78;5092200;28;20036;-56
2023/02/16 07:03:00;;;;;;;49.83;22.73;;;;;;;3.98;82.64;101930.75;5092605;28;20101;-56
2023/02/16 07:05:26;;;;;;;48.03;23.67;;;;;;;4.00;82.43;101918.38;5090658;28;20044;-56
2023/02/16 07:07:53;;;;;;;51.63;24.63;;;;;;;4.11;81.88;101918.66;5086917;28;20398;-57
2023/02/16 07:10:20;;;;;;;49.10;23.27;;;;;;;4.11;82.13;101921.31;5092685;28;20039;-56
2023/02/16 07:12:47;;;;;;;44.88;22.45;;;;;;;4.05;82.85;101919.00;5092230;28;20447;-57
2023/02/16 07:15:15;;;;;;;51.28;23.98;;;;;;;4.10;82.76;101914.34;5093072;28;20048;-57
2023/02/16 07:17:41;;;;;;;50.50;23.77;;;;;;;4.06;82.68;101915.44;5068641;28;20056;-56
2023/02/16 07:20:08;;;;;;;46.58;23.17;;;;;;;4.05;82.70;101913.72;5092562;28;20431;-57
2023/02/16 07:22:35;;;;;;;45.25;23.50;;;;;;;4.15;82.39;101914.94;5091683;28;20443;-57
2023/02/16 07:25:02;;;;;;;56.00;24.80;;;;;;;4.21;81.87;101909.34;5090825;28;20461;-57
2023/02/16 07:27:28;;;;;;;50.25;24.20;;;;;;;4.23;81.53;101910.09;5094918;28;20173;-57
2023/02/16 07:29:55;;;;;;;50.60;23.30;;;;;;;4.20;81.88;101914.69;5088508;28;20401;-57
2023/02/16 07:32:22;;;;;;;50.30;24.00;;;;;;;4.22;81.92;101916.31;5075726;28;20045;-56
2023/02/16 07:34:49;;;;;;;53.42;23.92;;;;;;;4.22;82.22;101910.19;5075660;28;20044;-56
2023/02/16 07:37:15;;;;;;;48.58;23.52;;;;;;;4.26;81.72;101922.25;5108463;28;20041;-55
2023/02/16 07:39:42;;;;;;;49.55;23.95;;;;;;;4.14;81.76;101921.13;5074909;28;20118;-56
2023/02/16 07:42:09;;;;;;;54.67;25.35;;;;;;;4.22;81.88;101915.44;5075640;28;20056;-56
2023/02/16 07:44:36;;;;;;;50.42;24.45;;;;;;;4.29;81.73;101916.78;5074651;28;20102;-56
2023/02/16 07:47:03;;;;;;;49.42;23.73;;;;;;;4.29;81.08;101919.41;5063601;28;20099;-55
2023/02/16 07:49:30;;;;;;;48.53;24.52;;;;;;;4.31;81.12;101914.09;5081072;28;20052;-55
2023/02/16 07:51:57;;;;;;;49.47;23.75;;;;;;;4.38;81.26;101911.06;5090378;28;20048;-55
2023/02/16 07:54:23;;;;;;;59.13;24.90;;;;;;;4.42;80.52;101909.06;5092802;28;20493;-55
2023/02/16 07:56:50;;;;;;;48.72;23.52;;;;;;;4.54;80.61;101918.91;5089509;28;20124;-56
2023/02/16 07:59:17;;;;;;;50.95;24.55;;;;;;;4.38;80.79;101918.06;5087272;28;20374;-56
2023/02/16 08:01:43;;;;;;;56.72;25.05;;;;;;;4.40;80.62;101918.84;5081274;28;20154;-56
2023/02/16 08:04:11;;;;;;;51.22;25.63;;;;;;;4.40;81.04;101924.09;5070097;28;20089;-56
2023/02/16 08:06:38;;;;;;;52.17;24.63;;;;;;;4.40;80.94;101932.84;5087275;28;20048;-56
2023/02/16 08:09:05;;;;;;;51.17;24.65;;;;;;;4.56;80.15;101935.44;5098345;28;20035;-55
2023/02/16 08:11:32;;;;;;;52.15;23.88;;;;;;;4.50;79.76;101925.28;5092930;28;20036;-55
2023/02/16 08:13:59;;;;;;;53.67;26.27;;;;;;;4.53;80.38;101930.38;5064879;28;20044;-56
2023/02/16 08:16:28;;;;;;;54.13;24.20;;;;;;;4.67;80.25;101920.84;5088673;28;20052;-57
2023/02/16 08:18:56;;;;;;;50.38;24.02;;;;;;;4.63;79.54;101921.97;5085216;28;20040;-56
2023/02/16 08:21:26;;;;;;;54.63;25.48;;;;;;;4.65;79.67;101925.34;5073918;28;20517;-56
2023/02/16 08:23:56;;;;;;;53.45;25.38;;;;;;;4.72;79.17;101921.44;5089967;28;20042;-56
2023/02/16 08:26:26;;;;;;;55.13;25.30;;;;;;;4.64;79.27;101929.78;5089843;28;20059;-56
2023/02/16 08:28:52;;;;;;;53.25;25.50;;;;;;;4.49;79.30;101936.72;5079624;28;20398;-56
2023/02/16 08:31:23;;;;;;;64.00;29.88;;;;;;;4.43;80.58;101945.78;5087711;28;20055;-56
2023/02/16 08:33:52;;;;;;;66.13;28.13;;;;;;;4.69;79.84;101932.13;5078899;28;20450;-58
2023/02/16 08:36:31;;;;;;;53.33;25.50;;;;;;;4.64;79.14;101944.66;5067502;28;20131;-57
2023/02/16 08:39:00;;;;;;;53.50;24.55;;;;;;;4.75;78.87;101934.44;5087716;28;20147;-57
2023/02/16 08:41:32;;;;;;;51.92;24.02;;;;;;;4.99;78.29;101933.00;5070045;28;20082;-57
2023/02/16 08:43:59;;;;;;;;;;;;;;;5.37;76.59;101936.97;5078209;28;20370;-57
2023/02/16 08:46:28;;;;;;;53.30;25.38;;;;;;;5.54;75.33;101928.91;5071471;28;20407;-57
2023/02/16 08:48:57;;;;;;;50.67;24.92;;;;;;;5.41;75.59;101935.00;5068550;28;20401;-57
2023/02/16 08:51:25;;;;;;;58.35;25.77;;;;;;;5.47;75.48;101943.38;5072070;28;20036;-57
2023/02/16 08:53:52;;;;;;;50.72;24.80;;;;;;;5.47;75.58;101940.72;5086318;28;20093;-56
2023/02/16 08:56:19;;;;;;;56.65;26.17;;;;;;;5.42;75.61;101934.91;5050411;28;20040;-56
2023/02/16 08:58:46;;;;;;;57.28;25.67;;;;;;;5.48;75.27;101937.19;5076807;28;20044;-57
2023/02/16 09:01:14;;;;;;;55.65;26.15;;;;;;;5.57;75.82;101936.63;5065191;28;20067;-57
2023/02/16 09:03:43;;;;;;;58.50;26.83;;;;;;;5.56;76.28;101937.53;5078744;28;20039;-57
2023/02/16 09:06:12;;;;;;;54.35;26.15;;;;;;;5.79;75.40;101937.13;5070747;28;20105;-58
2023/02/16 09:08:39;;;;;;;59.13;27.65;;;;;;;5.74;75.07;101937.38;5087404;28;20075;-58
2023/02/16 09:11:11;;;;;;;54.28;26.77;;;;;;;6.02;74.73;101936.59;5069696;28;20486;-58
2023/02/16 09:13:40;;;;;;;53.53;26.35;;;;;;;6.10;74.07;101942.22;5084934;28;20040;-58
2023/02/16 09:16:10;;;;;;;56.80;27.15;;;;;;;6.35;73.26;101938.03;5082988;28;20043;-58
2023/02/16 09:18:38;;;;;;;59.67;27.80;;;;;;;6.31;73.75;101923.34;5071364;28;20044;-58
2023/02/16 09:21:10;;;;;;;61.03;27.92;;;;;;;6.19;74.09;101938.16;5083890;28;20069;-58
2023/02/16 09:23:38;;;;;;;55.55;27.40;;;;;;;6.19;74.14;101943.44;5081126;28;20036;-58
2023/02/16 09:26:06;;;;;;;61.47;28.58;;;;;;;6.22;73.71;101942.38;5069409;28;20047;-58
2023/02/16 09:28:37;;;;;;;60.97;28.48;;;;;;;6.41;72.89;101939.44;5084429;28;20055;-58
2023/02/16 09:31:24;;;;;;;58.58;27.48;;;;;;;6.53;72.93;101936.00;5065677;28;20050;-58
2023/02/16 09:33:55;;;;;;;57.08;27.88;;;;;;;6.61;72.88;101938.16;5071800;28;20051;-58
2023/02/16 09:36:22;;;;;;;57.30;29.05;;;;;;;6.54;72.28;101948.25;5067055;28;20051;-58
2023/02/16 09:38:50;;;;;;;52.97;27.40;;;;;;;6.47;72.88;101966.22;5086256;28;20044;-58
2023/02/16 09:41:40;;;;;;;58.80;27.20;;;;;;;6.56;72.31;101971.88;5067736;28;20127;-58
2023/02/16 09:44:38;;;;;;;62.78;28.77;;;;;;;6.74;72.90;101973.34;5087173;28;20105;-58
2023/02/16 09:47:16;;;;;;;57.40;28.20;;;;;;;6.85;72.30;101968.19;5070683;28;20055;-56
2023/02/16 09:49:44;;;;;;;59.55;28.55;;;;;;;6.82;71.85;101967.56;5067780;28;20051;-56
2023/02/16 09:54:58;;;;;;;69.20;30.73;;;;;;;6.91;71.99;101972.22;5077859;27;20167;-57
2023/02/16 09:57:55;;;;;;;61.85;29.27;;;;;;;6.95;71.98;101978.16;5089959;28;20044;-56
2023/02/16 10:00:54;;;;;;;67.43;30.85;;;;;;;7.04;72.48;101981.06;5091164;28;20041;-57
2023/02/16 10:04:00;;;;;;;66.38;31.17;;;;;;;7.23;71.18;101985.13;5076143;28;20497;-56
2023/02/16 10:07:07;;;;;;;70.15;30.15;;;;;;;7.14;71.08;101983.09;5075148;28;20490;-56
2023/02/16 10:09:35;;;;;;;64.60;29.88;;;;;;;7.10;72.02;101979.81;5095080;28;20063;-57
2023/02/16 10:12:15;;;;;;;76.57;31.13;;;;;;;6.95;71.73;101975.50;5088718;28;20067;-56
2023/02/16 10:15:07;;;;;;;76.90;32.25;;;;;;;6.97;72.52;101976.25;5092189;28;20039;-56
2023/02/16 10:17:44;;;;;;;71.15;32.95;;;;;;;6.95;73.25;101971.09;5068025;28;20051;-56
2023/02/16 10:20:33;;;;;;;67.32;32.22;;;;;;;6.89;72.59;101980.28;5084213;28;20039;-56
2023/02/16 10:23:40;;;;;;;69.50;32.75;;;;;;;7.02;73.48;101980.31;5070649;28;20036;-56
2023/02/16 10:26:31;;;;;;;73.75;31.88;;;;;;;6.97;73.45;101974.47;5093425;28;20047;-56
2023/02/16 10:29:04;;;;;;;71.97;33.38;;;;;;;6.84;74.05;101974.44;5053555;28;20040;-57
2023/02/16 10:31:42;;;;;;;67.55;31.80;;;;;;;6.85;73.68;101970.84;5078571;28;20050;-56
2023/02/16 10:34:28;;;;;;;71.80;32.42;;;;;;;6.65;73.80;101977.41;5083071;28;20040;-56
2023/02/16 10:37:18;;;;;;;76.65;32.80;;;;;;;6.60;74.53;101979.47;5076066;28;20101;-56
2023/02/16 10:42:35;;;;;;;73.95;32.33;;;;;;;6.68;74.67;101971.94;5033473;28;20045;-56
2023/02/16 10:45:33;;;;;;;71.67;32.77;;;;;;;6.66;74.40;101981.75;5051316;28;20179;-56
2023/02/16 10:48:00;;;;;;;71.45;32.80;;;;;;;6.75;74.61;101976.81;5033898;28;20406;-56
2023/02/16 10:50:32;;;;;;;71.43;32.50;;;;;;;6.86;74.67;101962.00;5042608;28;20553;-58
2023/02/16 10:53:04;;;;;;;69.55;32.75;;;;;;;6.86;74.79;101967.28;5034848;28;20243;-57
2023/02/16 10:55:33;;;;;;;73.35;32.05;;;;;;;6.89;74.19;101977.63;5048628;28;20044;-56
2023/02/16 10:58:00;;;;;;;75.32;33.22;;;;;;;7.05;73.68;101976.63;5031177;28;20190;-56
2023/02/16 11:00:47;;;;;;;67.57;31.50;;;;;;;7.12;73.57;101959.44;5055528;28;20136;-56
2023/02/16 11:03:14;;;;;;;72.25;32.58;;;;;;;7.26;73.43;101958.53;5026980;28;20277;-56
2023/02/16 11:05:41;;;;;;;71.78;33.13;;;;;;;7.42;73.14;101960.97;5047793;28;20098;-56
2023/02/16 11:08:11;;;;;;;67.18;32.85;;;;;;;7.39;72.67;101956.75;5037258;28;20060;-56
2023/02/16 11:10:53;;;;;;;66.80;33.05;;;;;;;7.45;71.98;101961.59;5051239;28;20126;-57
2023/02/16 11:13:32;;;;;;;66.47;33.38;;;;;;;7.71;72.31;101958.97;5031178;28;20099;-56
2023/02/16 11:16:05;;;;;;;74.72;33.38;;;;;;;7.87;71.56;101950.84;5052355;28;20049;-56
2023/02/16 11:18:39;;;;;;;68.80;33.00;;;;;;;7.84;71.36;101940.47;5024324;28;20781;-57
2023/02/16 11:21:08;;;;;;;70.68;33.47;;;;;;;7.63;72.12;101935.72;4988310;28;20381;-56
2023/02/16 11:23:39;;;;;;;79.55;34.05;;;;;;;7.69;72.33;101935.31;4974041;28;20074;-58
2023/02/16 11:28:47;;;;;;;69.65;33.63;;;;;;;8.12;71.30;101920.88;5076015;27;20394;-56
2023/02/16 11:31:26;;;;;;;75.43;32.85;;;;;;;8.30;71.14;101925.81;5054658;28;20648;-57
2023/02/16 11:33:58;;;;;;;81.32;33.67;;;;;;;8.58;70.23;101928.16;5030142;28;20052;-55
2023/02/16 11:36:33;;;;;;;70.90;33.58;;;;;;;8.56;70.71;101923.97;5027046;28;20045;-56
2023/02/16 11:39:05;;;;;;;71.57;35.25;;;;;;;8.54;70.94;101921.41;5030690;28;20041;-56
2023/02/16 11:41:34;;;;;;;74.90;33.38;;;;;;;8.30;70.00;101913.44;5029166;28;20038;-55
2023/02/16 11:44:02;;;;;;;79.78;33.92;;;;;;;8.23;70.48;101899.81;5006587;28;20163;-56
2023/02/16 11:46:38;;;;;;;71.68;34.20;;;;;;;8.17;71.26;101892.34;5014211;28;20060;-56
2023/02/16 11:52:26;;;;;;;74.47;34.03;;;;;;;8.34;71.68;101900.84;5049751;27;20431;-56
2023/02/16 11:54:56;;;;;;;80.93;34.75;;;;;;;8.33;71.71;101894.72;5048630;28;20049;-55
2023/02/16 11:57:27;;;;;;;75.88;34.75;;;;;;;8.50;72.33;101897.97;5029558;28;20041;-56
2023/02/16 11:59:55;;;;;;;78.83;36.20;;;;;;;8.60;72.49;101891.91;5023991;28;20498;-56
2023/02/16 12:02:37;;;;;;;73.28;34.75;;;;;;;8.64;72.41;101895.13;5027914;28;20288;-56
2023/02/16 12:05:33;;;;;;;80.63;36.47;;;;;;;8.63;72.51;101906.69;5006728;28;20045;-57
2023/02/16 12:11:06;;;;;;;85.70;37.33;;;;;;;8.72;73.56;101890.13;5093019;27;20383;-56
2023/02/16 12:13:55;;;;;;;80.65;35.63;;;;;;;8.89;71.98;101890.66;5061265;28;20044;-56
2023/02/16 12:16:33;;;;;;;88.95;37.72;;;;;;;8.91;71.77;101884.28;5028125;28;20960;-56
2023/02/16 12:19:35;;;;;;;87.75;34.78;;;;;;;9.01;71.46;101898.53;5026016;28;20044;-56
2023/02/16 12:25:08;;;;;;;90.28;38.55;;;;;;;8.96;71.48;101884.78;5106966;27;20368;-55
2023/02/16 12:27:45;;;;;;;92.95;38.35;;;;;;;9.17;71.37;101879.69;5104915;28;20125;-55
2023/02/16 12:30:53;;;;;;;82.60;37.33;;;;;;;9.28;71.85;101880.66;5109883;27;20055;-56
2023/02/16 12:36:27;;;;;;;86.10;39.92;;;;;;;9.37;73.31;101866.72;5096028;27;20507;-56
2023/02/16 12:39:08;;;;;;;97.95;40.05;;;;;;;9.43;74.58;101879.50;5077559;28;20090;-56
2023/02/16 12:41:46;;;;;;;97.47;39.80;;;;;;;9.31;76.23;101867.19;5089120;28;20058;-56